ZSHC

Hangzhou Xiaoshan International Airport

Hangzhou, China
TAF ZSHC 221510Z 2218/2318 22003MPS 3000 BR BKN020 TX35/2306Z TN27/2221Z BECMG 2307/2308 11005MPS
Issued Valid From Valid To
Jul-22 @ 15:10 UTC
(5 hours ago)
Jul-22 @ 18:00 UTC
(2 hours ago)
Jul-23 @ 18:00 UTC
(in 22 hours)
Jul-22 @ 18:00 to Jul-23 @ 07:00
TAF ZSHC 221510Z 2218/2318 22003MPS 3000 BR BKN020 TX35/2306Z TN27/2221Z
Wind Visibility Clouds Conditions
220° at 6 knots 2,993 meters
  • Broken at 2,000' AGL
  • Mist
Becoming Jul-23 @ 07:00 to Jul-23 @ 18:00
BECMG 2307/2308 11005MPS
Wind Visibility Clouds Conditions
110° at 10 knots 2,993 meters
  • Broken at 2,000' AGL
  • Mist
TAF ZSHC 221510Z 2218/2318 22003MPS 3000 BR BKN020 TX35/2306Z TN27/2221Z BECMG 2307/2308 11005MPS
Issued Jul-22 @ 15:10 UTC
(5 hours ago)
Valid From Jul-22 @ 18:00 UTC
(2 hours ago)
Valid To Jul-23 @ 18:00 UTC
(in 22 hours)
Jul-22 @ 18:00 - Jul-23 @ 07:00
Wind Visibility
220° at 6 knots 2,993 meters
Clouds
  • Broken at 2,000' AGL
Conditions
  • Mist
Becoming Jul-23 @ 07:00 - Jul-23 @ 18:00
Wind Visibility
110° at 10 knots 2,993 meters
Clouds
  • Broken at 2,000' AGL
Conditions
  • Mist